Time;durP1;ratioP1;P1;durP2;ratioP2;P2;SDS_P1;SDS_P2;PMS_P1;PMS_P2;Temp;Humidity;BMP_temperature;BMP_pressure;BME280_temperature;BME280_humidity;BME280_pressure;Samples;Min_cycle;Max_cycle;Signal;HPM_P1;HPM_P2
2023/06/03 00:03:22;;;;;;;8.20;1.90;;;;;;;9.58;69.63;100837.28;88849;1265;1057781;-88
2023/06/03 00:07:26;;;;;;;1.90;1.50;;;;;;;9.50;71.14;100837.27;88883;1265;1057199;-88
2023/06/03 00:11:29;;;;;;;5.90;2.40;;;;;;;9.48;73.62;100838.35;89142;1267;1057780;-87
2023/06/03 00:15:33;;;;;;;6.80;2.30;;;;;;;9.47;73.41;100838.06;89012;1266;1061310;-87
2023/06/03 00:19:36;;;;;;;3.30;1.20;;;;;;;9.47;72.68;100839.64;88863;1265;1057049;-87
2023/06/03 00:23:40;;;;;;;2.30;1.40;;;;;;;9.47;71.92;100848.30;88759;1267;1057302;-86
2023/06/03 00:27:45;;;;;;;3.00;1.90;;;;;;;9.46;70.98;100851.42;88505;1267;1058033;-89
2023/06/03 00:31:48;;;;;;;2.00;1.20;;;;;;;9.45;70.72;100853.77;88480;1267;1057796;-87
2023/06/03 00:35:51;;;;;;;3.60;1.80;;;;;;;9.40;70.38;100857.61;88935;1265;1057780;-89
2023/06/03 00:39:54;;;;;;;3.70;2.00;;;;;;;9.33;71.21;100866.27;88605;1265;1057883;-88
2023/06/03 00:43:58;;;;;;;3.00;1.50;;;;;;;9.25;71.37;100873.13;88739;1267;1057137;-88
2023/06/03 00:48:01;;;;;;;4.90;1.90;;;;;;;9.08;71.88;100877.96;89076;1265;1060758;-88
2023/06/03 00:52:07;;;;;;;5.30;1.80;;;;;;;9.00;72.05;100883.47;88856;1265;1060627;-86
2023/06/03 00:56:12;;;;;;;8.60;2.20;;;;;;;8.97;72.56;100889.34;88722;1266;1058539;-88
2023/06/03 01:00:16;;;;;;;3.80;1.50;;;;;;;8.98;72.19;100889.41;88602;1265;1057924;-85
2023/06/03 01:04:25;;;;;;;2.10;1.00;;;;;;;9.02;71.78;100893.44;89155;1265;1057419;-89
2023/06/03 01:08:46;;;;;;;1.90;1.10;;;;;;;9.05;71.97;100892.17;89064;1267;1057918;-89
2023/06/03 01:13:15;;;;;;;2.30;1.50;;;;;;;9.03;71.81;100896.36;89169;1267;1057971;-88
2023/06/03 01:17:23;;;;;;;4.60;2.00;;;;;;;8.97;71.38;100901.45;89361;1267;1058276;-89
2023/06/03 01:21:34;;;;;;;2.40;1.40;;;;;;;8.96;71.53;100903.50;89002;1265;1057223;-89
2023/06/03 01:25:40;;;;;;;4.00;1.70;;;;;;;8.92;71.37;100904.46;88734;1266;1058427;-88
2023/06/03 01:29:45;;;;;;;4.30;2.20;;;;;;;8.86;71.12;100909.48;88731;1268;1058444;-88
2023/06/03 01:33:49;;;;;;;3.00;1.80;;;;;;;8.82;71.51;100913.98;88872;1267;1060953;-87
2023/06/03 01:37:52;;;;;;;9.00;2.00;;;;;;;8.79;72.07;100915.40;88526;1267;1058594;-89
2023/06/03 01:41:55;;;;;;;2.40;1.80;;;;;;;8.74;72.05;100915.70;89136;1269;1057573;-88
2023/06/03 01:45:59;;;;;;;6.20;2.20;;;;;;;8.70;71.98;100917.03;88583;1269;1058822;-86
2023/06/03 01:50:03;;;;;;;3.70;2.20;;;;;;;8.64;71.61;100919.86;88544;1270;1058001;-88
2023/06/03 01:54:06;;;;;;;8.00;2.40;;;;;;;8.60;71.65;100923.80;88485;1265;1060179;-89
2023/06/03 01:58:10;;;;;;;7.30;2.40;;;;;;;8.53;71.78;100919.33;89012;1265;1057336;-87
2023/06/03 02:02:13;;;;;;;6.30;3.00;;;;;;;8.36;72.57;100923.86;88896;1265;1058655;-89
2023/06/03 02:06:16;;;;;;;3.80;2.60;;;;;;;8.16;73.94;100924.77;88552;1265;1060816;-89
2023/06/03 02:10:19;;;;;;;2.40;1.50;;;;;;;8.14;74.32;100926.59;88601;1268;1057803;-88
2023/06/03 02:14:24;;;;;;;2.10;1.20;;;;;;;8.12;74.31;100922.66;88198;1267;1057597;-87
2023/06/03 02:18:28;;;;;;;7.30;2.20;;;;;;;8.09;74.92;100925.02;88958;1269;1057589;-87
2023/06/03 02:22:31;;;;;;;1.50;1.30;;;;;;;8.04;74.34;100925.99;88914;1265;1056989;-87
2023/06/03 02:26:35;;;;;;;10.60;2.70;;;;;;;8.06;74.50;100927.30;88472;1267;1057299;-87
2023/06/03 02:30:38;;;;;;;3.00;1.50;;;;;;;8.04;74.06;100929.89;88515;1267;1058076;-87
2023/06/03 02:34:46;;;;;;;5.30;2.50;;;;;;;8.04;73.83;100930.58;88529;1265;1058980;-87
2023/06/03 02:38:49;;;;;;;2.40;1.80;;;;;;;8.02;74.29;100930.68;88822;1265;1057124;-88
2023/06/03 02:42:53;;;;;;;2.80;1.40;;;;;;;8.05;73.89;100929.83;88950;1265;1060048;-85
2023/06/03 02:46:56;;;;;;;2.90;2.60;;;;;;;8.08;73.51;100932.85;89064;1265;1060562;-88
2023/06/03 02:50:59;;;;;;;4.50;1.70;;;;;;;8.08;73.58;100934.97;89181;1268;1058140;-86
2023/06/03 02:55:03;;;;;;;3.60;1.20;;;;;;;8.04;73.71;100941.02;88643;1270;1056837;-89
2023/06/03 02:59:06;;;;;;;2.10;1.30;;;;;;;8.02;73.77;100945.21;89081;1266;1057843;-88
2023/06/03 03:03:10;;;;;;;2.90;1.40;;;;;;;8.00;74.28;100944.96;88968;1266;1057362;-89
2023/06/03 03:07:13;;;;;;;1.90;1.70;;;;;;;8.03;74.22;100942.86;89212;1265;1057427;-87
2023/06/03 03:11:17;;;;;;;6.70;2.20;;;;;;;8.01;74.48;100947.56;89057;1267;1057052;-87
2023/06/03 03:15:20;;;;;;;9.70;2.50;;;;;;;8.00;74.95;100958.55;89099;1268;1057242;-87
2023/06/03 03:19:23;;;;;;;4.60;1.70;;;;;;;8.01;75.79;100959.91;88835;1265;1060827;-87
2023/06/03 03:23:27;;;;;;;6.20;1.90;;;;;;;8.00;76.36;100961.22;89084;1269;1060589;-86
2023/06/03 03:27:31;;;;;;;3.80;2.50;;;;;;;7.98;77.18;100966.29;88691;1266;1056114;-86
2023/06/03 03:31:35;;;;;;;4.60;2.20;;;;;;;8.09;78.20;100970.95;89057;1265;1060690;-87
2023/06/03 03:35:40;;;;;;;2.50;1.40;;;;;;;8.19;78.10;100973.50;88912;1267;1057715;-88
2023/06/03 03:39:43;;;;;;;3.60;1.70;;;;;;;8.22;78.85;100977.23;88768;1267;1058734;-87
2023/06/03 03:43:50;;;;;;;3.20;1.60;;;;;;;8.24;79.48;100977.11;89055;1267;1057150;-87
2023/06/03 03:48:02;;;;;;;8.50;2.80;;;;;;;8.42;80.45;100983.59;88779;1265;1058785;-87
2023/06/03 03:52:06;;;;;;;1.50;1.40;;;;;;;8.42;80.45;100982.38;88614;1265;1058315;-87
2023/06/03 03:56:17;;;;;;;;;;;;;;;8.19;81.21;100980.94;88661;1265;1057292;-88
2023/06/03 04:00:22;;;;;;;2.80;1.20;;;;;;;8.22;82.38;100989.57;88970;1267;1056634;-86
2023/06/03 04:04:38;;;;;;;5.00;2.30;;;;;;;8.39;82.52;100992.08;88639;1265;1057397;-88
2023/06/03 04:08:45;;;;;;;5.60;2.40;;;;;;;8.66;81.34;100996.15;88791;1268;1058774;-84
2023/06/03 04:12:48;;;;;;;5.50;3.30;;;;;;;8.84;81.51;101003.86;88626;1268;1057767;-86
2023/06/03 04:16:57;;;;;;;3.90;2.60;;;;;;;9.27;82.39;101005.05;88133;1270;1058325;-87
2023/06/03 04:21:01;;;;;;;3.90;2.20;;;;;;;10.04;80.05;101002.10;88647;1267;1060852;-86
2023/06/03 04:25:11;;;;;;;6.20;2.20;;;;;;;11.47;78.43;101002.18;88282;1265;1057558;-87
2023/06/03 04:29:14;;;;;;;2.90;2.10;;;;;;;12.95;80.76;101000.96;88744;1269;1059011;-87
2023/06/03 04:33:18;;;;;;;4.40;2.10;;;;;;;14.26;77.72;100996.80;88780;1266;1057960;-87
2023/06/03 04:37:22;;;;;;;5.60;2.40;;;;;;;15.49;72.23;100998.06;88687;1265;1057246;-87
2023/06/03 04:41:28;;;;;;;3.50;2.00;;;;;;;16.59;64.66;100992.68;88777;1268;1058295;-87
2023/06/03 04:45:32;;;;;;;4.50;1.80;;;;;;;17.55;60.23;101002.70;88453;1265;1057817;-85
2023/06/03 04:49:35;;;;;;;7.60;1.90;;;;;;;17.96;58.23;101004.32;88782;1268;1057718;-87
2023/06/03 04:53:40;;;;;;;3.30;1.90;;;;;;;18.42;57.42;100997.93;88498;1266;1057680;-87
2023/06/03 04:57:45;;;;;;;3.30;1.70;;;;;;;18.74;54.28;100997.80;88293;1270;1058703;-86
2023/06/03 05:01:50;;;;;;;4.10;2.00;;;;;;;19.08;51.31;101001.15;88951;1269;1057812;-87
2023/06/03 05:05:54;;;;;;;3.00;1.40;;;;;;;19.55;50.44;101000.42;88487;1265;1058143;-86
2023/06/03 05:09:57;;;;;;;6.20;1.70;;;;;;;20.02;49.22;100998.02;88923;1265;1057498;-86
2023/06/03 05:14:01;;;;;;;4.10;1.70;;;;;;;20.73;48.40;100996.20;89002;1266;1057337;-87
2023/06/03 05:18:04;;;;;;;2.80;2.20;;;;;;;21.53;45.98;101001.23;88690;1270;1057324;-87
2023/06/03 05:22:08;;;;;;;3.50;1.70;;;;;;;22.30;44.87;100992.27;88598;1266;1060190;-86
2023/06/03 05:26:11;;;;;;;25.90;23.50;;;;;;;22.78;42.77;100993.77;88809;1268;1058377;-86
2023/06/03 05:30:14;;;;;;;5.00;3.50;;;;;;;22.76;41.44;100993.06;88741;1270;1058555;-86
2023/06/03 05:34:18;;;;;;;12.20;6.10;;;;;;;22.53;40.91;100991.36;88553;1265;1059712;-86
2023/06/03 05:38:21;;;;;;;6.10;5.20;;;;;;;21.99;41.78;100994.17;88914;1268;1060748;-86
2023/06/03 05:42:25;;;;;;;2.90;1.10;;;;;;;21.36;41.97;100988.48;88725;1265;1057968;-87
2023/06/03 05:46:28;;;;;;;6.60;1.70;;;;;;;21.29;42.86;100986.81;88472;1265;1057655;-87
2023/06/03 05:50:36;;;;;;;4.50;2.00;;;;;;;21.38;42.57;100989.21;88572;1267;1058232;-87
2023/06/03 05:54:39;;;;;;;7.80;2.10;;;;;;;21.31;43.10;100992.72;88558;1268;1058502;-88
2023/06/03 05:58:43;;;;;;;3.50;1.90;;;;;;;21.23;43.19;100993.61;88836;1265;1057417;-87
2023/06/03 06:02:47;;;;;;;4.70;1.70;;;;;;;21.18;43.79;100997.16;88798;1265;1058028;-87
2023/06/03 06:06:52;;;;;;;3.50;1.20;;;;;;;21.12;44.39;100997.80;88680;1270;1057475;-87
2023/06/03 06:10:55;;;;;;;4.40;3.10;;;;;;;21.23;44.82;100999.60;88745;1268;1061294;-86
2023/06/03 06:14:58;;;;;;;10.20;7.70;;;;;;;21.38;44.13;101002.70;88714;1265;1057988;-87
2023/06/03 06:19:01;;;;;;;3.40;2.00;;;;;;;21.10;43.63;100996.81;88649;1267;1057851;-87
2023/06/03 06:23:05;;;;;;;2.80;2.40;;;;;;;21.14;43.95;100998.81;88711;1270;1060429;-87
2023/06/03 06:27:10;;;;;;;3.00;1.40;;;;;;;20.95;43.91;101000.19;88999;1265;1057936;-87
2023/06/03 06:31:15;;;;;;;5.10;3.00;;;;;;;20.96;44.71;101002.45;88980;1265;1057416;-86
2023/06/03 06:35:19;;;;;;;6.40;1.20;;;;;;;20.86;44.80;100999.64;88532;1265;1058159;-86
2023/06/03 06:39:32;;;;;;;3.50;1.30;;;;;;;20.96;44.78;100997.28;88701;1270;1057843;-87
2023/06/03 06:43:39;;;;;;;3.60;1.80;;;;;;;20.81;44.97;100995.80;88715;1266;1057302;-87
2023/06/03 06:47:42;;;;;;;3.60;1.20;;;;;;;20.58;45.07;100999.55;88955;1265;1060247;-87
2023/06/03 06:51:49;;;;;;;8.60;4.40;;;;;;;20.80;44.56;100992.80;88970;1266;1057977;-86
2023/06/03 06:55:55;;;;;;;5.00;1.40;;;;;;;20.86;44.17;100990.86;89163;1265;1057848;-86
2023/06/03 06:59:58;;;;;;;2.60;1.20;;;;;;;20.82;45.06;100997.27;89159;1265;1056261;-86
2023/06/03 07:04:02;;;;;;;2.60;1.10;;;;;;;20.86;43.89;100995.58;88746;1265;1210046;-88
2023/06/03 07:08:06;;;;;;;1.90;1.20;;;;;;;21.03;43.54;100996.34;88625;1265;1057488;-87
2023/06/03 07:12:10;;;;;;;2.10;1.40;;;;;;;21.21;42.69;100998.70;88976;1269;1058825;-86
2023/06/03 07:16:15;;;;;;;3.50;2.60;;;;;;;21.18;42.38;100997.60;88810;1268;1059381;-86
2023/06/03 07:20:28;;;;;;;2.60;1.00;;;;;;;20.95;42.48;101007.16;89115;1267;1057948;-86
2023/06/03 07:24:35;;;;;;;1.60;1.00;;;;;;;20.87;43.22;101002.23;89124;1265;1056762;-85
2023/06/03 07:28:38;;;;;;;1.80;0.90;;;;;;;21.02;43.31;101002.19;88741;1265;1057466;-87
2023/06/03 07:32:43;;;;;;;2.10;1.10;;;;;;;20.97;42.84;100999.65;88515;1269;1058206;-85
2023/06/03 07:36:50;;;;;;;1.80;0.50;;;;;;;20.97;42.66;101003.42;89473;1265;1058782;-86
2023/06/03 07:40:54;;;;;;;1.60;0.80;;;;;;;20.94;42.69;101005.95;88771;1265;1058027;-85
2023/06/03 07:44:58;;;;;;;1.50;0.70;;;;;;;20.97;43.22;101007.19;88782;1265;1060249;-86
2023/06/03 07:49:06;;;;;;;3.70;2.00;;;;;;;21.15;43.45;101007.15;89240;1269;1058858;-85
2023/06/03 07:53:13;;;;;;;1.50;0.90;;;;;;;21.11;43.00;101009.10;89114;1265;1057591;-85
2023/06/03 07:57:17;;;;;;;3.00;0.80;;;;;;;20.93;43.44;101008.80;88765;1265;1057767;-86
2023/06/03 08:01:25;;;;;;;3.60;1.30;;;;;;;20.87;43.68;101004.81;88633;1268;1057693;-84
2023/06/03 08:05:36;;;;;;;0.90;0.60;;;;;;;20.90;44.18;101001.68;88599;1265;1057913;-85
2023/06/03 08:09:40;;;;;;;3.40;1.40;;;;;;;20.95;43.82;101010.58;88917;1265;1059569;-84
2023/06/03 08:13:43;;;;;;;5.20;1.10;;;;;;;20.77;43.61;101011.48;88422;1267;1057756;-84
2023/06/03 08:17:47;;;;;;;6.30;0.90;;;;;;;20.68;43.70;101015.22;88825;1265;1057429;-84
2023/06/03 08:21:52;;;;;;;3.00;1.70;;;;;;;20.54;44.33;101014.30;88453;1265;1057811;-85
2023/06/03 08:25:59;;;;;;;2.50;2.30;;;;;;;20.50;43.31;101018.53;88742;1267;1057761;-87
2023/06/03 08:30:03;;;;;;;2.50;0.80;;;;;;;20.41;43.55;101012.45;88836;1269;1059714;-87
2023/06/03 08:34:07;;;;;;;3.70;0.90;;;;;;;20.35;44.64;101012.94;88571;1271;1057940;-85
2023/06/03 08:38:10;;;;;;;3.30;1.20;;;;;;;20.16;44.13;101013.91;88724;1265;1057764;-85
2023/06/03 08:42:21;;;;;;;3.30;1.10;;;;;;;19.85;43.45;101013.92;88473;1265;1057591;-82
2023/06/03 08:46:40;;;;;;;1.10;0.80;;;;;;;19.68;44.45;101013.04;89270;1265;1056581;-84
2023/06/03 08:50:49;;;;;;;3.60;1.10;;;;;;;19.58;45.19;101009.67;88639;1265;1059165;-83
2023/06/03 08:54:56;;;;;;;5.30;1.70;;;;;;;19.56;45.46;101007.64;89319;1268;1058583;-84
2023/06/03 08:59:05;;;;;;;6.90;1.40;;;;;;;19.83;43.96;100993.20;88677;1265;1057912;-83
2023/06/03 09:03:11;;;;;;;1.40;0.60;;;;;;;20.19;44.11;100991.99;89142;1266;1057663;-83
2023/06/03 09:07:15;;;;;;;4.30;0.80;;;;;;;20.22;41.83;100992.39;89523;1268;1058193;-84
2023/06/03 09:11:20;;;;;;;2.30;0.80;;;;;;;19.92;40.69;100999.13;89254;1271;1057111;-83
2023/06/03 09:15:24;;;;;;;4.30;1.20;;;;;;;19.95;41.96;100995.38;89504;1265;1057378;-83
2023/06/03 09:19:27;;;;;;;2.00;0.80;;;;;;;20.18;42.74;100986.70;89059;1266;1057809;-83
2023/06/03 09:23:30;;;;;;;4.30;1.20;;;;;;;20.28;40.07;100988.54;89823;1267;1058214;-83
2023/06/03 09:27:34;;;;;;;1.20;0.60;;;;;;;20.21;38.62;100988.75;89392;1265;1057994;-84
2023/06/03 09:31:38;;;;;;;0.60;0.30;;;;;;;20.22;38.46;100984.67;89196;1269;1057834;-84
2023/06/03 09:35:41;;;;;;;1.10;0.70;;;;;;;20.15;37.45;100980.94;88964;1270;1057410;-83
2023/06/03 09:39:44;;;;;;;1.40;0.90;;;;;;;20.20;37.93;100972.81;88933;1265;1058385;-84
2023/06/03 09:43:57;;;;;;;1.10;0.60;;;;;;;20.20;39.17;100973.23;88566;1268;1057301;-84
2023/06/03 09:48:02;;;;;;;1.20;0.80;;;;;;;20.09;37.35;100972.25;88729;1269;1057244;-84
2023/06/03 09:52:09;;;;;;;1.50;1.00;;;;;;;19.95;36.33;100970.08;88821;1269;1057364;-83
2023/06/03 09:56:29;;;;;;;2.10;0.60;;;;;;;19.91;36.77;100977.45;88788;1269;1057292;-83
2023/06/03 10:00:51;;;;;;;2.40;0.70;;;;;;;19.88;36.15;100978.86;88733;1267;1057512;-83
2023/06/03 10:04:54;;;;;;;2.40;0.80;;;;;;;19.97;36.16;100975.61;89031;1269;1058866;-84
2023/06/03 10:09:00;;;;;;;1.10;0.40;;;;;;;19.93;35.89;100970.74;88580;1269;1060566;-84
2023/06/03 10:13:21;;;;;;;6.80;3.60;;;;;;;19.84;36.02;100969.22;88635;1269;1060871;-83
2023/06/03 10:17:24;;;;;;;2.10;1.30;;;;;;;19.80;34.54;100965.80;88759;1268;1057871;-84
2023/06/03 10:21:29;;;;;;;1.10;0.50;;;;;;;19.93;35.05;100962.30;88637;1267;1060816;-84
2023/06/03 10:25:45;;;;;;;3.10;0.60;;;;;;;20.14;35.47;100956.42;88805;1269;1058203;-84
2023/06/03 10:29:53;;;;;;;2.80;1.20;;;;;;;19.99;34.50;100957.86;88722;1270;1058176;-84
2023/06/03 10:33:57;;;;;;;2.70;0.70;;;;;;;19.89;35.30;100963.06;88943;1271;1058493;-84
2023/06/03 10:38:02;;;;;;;0.40;0.30;;;;;;;19.92;35.94;100952.92;88745;1267;1057565;-84
2023/06/03 10:42:06;;;;;;;2.90;0.50;;;;;;;20.05;36.26;100946.93;88931;1267;1057143;-84
2023/06/03 10:46:11;;;;;;;0.60;0.20;;;;;;;20.11;34.05;100943.16;88760;1265;1057935;-83
2023/06/03 10:50:42;;;;;;;2.00;0.30;;;;;;;20.15;34.89;100946.33;88906;1270;1057088;-84
2023/06/03 10:55:18;;;;;;;2.40;0.70;;;;;;;20.13;33.05;100945.83;88859;1266;1060483;-84
2023/06/03 10:59:25;;;;;;;1.30;0.50;;;;;;;20.15;33.85;100939.55;88707;1269;1058350;-82
2023/06/03 11:03:32;;;;;;;3.60;1.40;;;;;;;20.00;32.80;100935.30;88603;1270;1058211;-83
2023/06/03 11:07:35;;;;;;;0.80;0.80;;;;;;;20.07;35.16;100938.61;88773;1267;1058421;-83
2023/06/03 11:11:41;;;;;;;0.80;0.40;;;;;;;20.16;33.81;100935.11;88716;1269;1056604;-84
2023/06/03 11:16:01;;;;;;;0.90;0.40;;;;;;;20.31;33.80;100931.80;88838;1267;1056869;-84
2023/06/03 11:20:05;;;;;;;0.60;0.10;;;;;;;20.40;33.42;100929.17;88775;1269;1059549;-84
2023/06/03 11:24:10;;;;;;;0.80;0.30;;;;;;;20.55;34.04;100920.86;88765;1266;1058036;-83
2023/06/03 11:28:29;;;;;;;1.80;0.50;;;;;;;20.61;35.23;100919.95;88784;1265;1057895;-84
2023/06/03 11:32:38;;;;;;;1.70;0.70;;;;;;;20.44;33.43;100923.67;88819;1267;1057924;-84
2023/06/03 11:36:50;;;;;;;1.20;0.10;;;;;;;20.39;34.40;100924.98;88679;1269;1057997;-84
2023/06/03 11:40:53;;;;;;;2.10;0.30;;;;;;;20.41;34.69;100927.58;89036;1266;1060219;-84
2023/06/03 11:45:19;;;;;;;0.50;0.30;;;;;;;20.59;34.94;100924.52;88806;1266;1058257;-84
2023/06/03 11:49:23;;;;;;;1.00;0.60;;;;;;;20.75;33.57;100921.38;88966;1267;1057996;-83
2023/06/03 11:53:28;;;;;;;2.00;0.40;;;;;;;20.86;35.85;100916.22;89034;1268;1057290;-84
2023/06/03 11:57:31;;;;;;;1.00;0.60;;;;;;;20.95;34.65;100917.15;89052;1267;1058805;-84
2023/06/03 12:01:35;;;;;;;0.80;0.50;;;;;;;20.65;34.92;100909.62;89026;1265;1060163;-83
2023/06/03 12:05:55;;;;;;;1.50;0.40;;;;;;;20.77;35.61;100910.59;88914;1267;1060392;-84
2023/06/03 12:09:59;;;;;;;1.50;0.30;;;;;;;20.91;34.23;100908.21;88921;1270;1057836;-83
2023/06/03 12:14:02;;;;;;;1.20;0.50;;;;;;;21.19;34.99;100903.39;88952;1269;1062104;-84
2023/06/03 12:18:07;;;;;;;0.70;0.40;;;;;;;21.41;34.04;100899.52;88916;1267;1057145;-84
2023/06/03 12:22:12;;;;;;;0.50;0.50;;;;;;;21.46;35.74;100892.82;88776;1270;1057363;-84
2023/06/03 12:26:15;;;;;;;4.00;1.50;;;;;;;21.46;34.82;100886.57;88929;1266;1057499;-84
2023/06/03 12:30:30;;;;;;;0.70;0.50;;;;;;;21.58;34.68;100877.54;88951;1267;1058096;-84
2023/06/03 12:34:35;;;;;;;4.80;0.40;;;;;;;21.63;34.59;100871.59;88867;1267;1057061;-84
2023/06/03 12:38:58;;;;;;;1.20;0.50;;;;;;;21.80;35.20;100859.46;88790;1267;1058789;-84
2023/06/03 12:43:04;;;;;;;0.80;0.50;;;;;;;21.72;34.59;100859.88;88816;1267;1058131;-84
2023/06/03 12:47:07;;;;;;;0.90;0.60;;;;;;;21.64;34.65;100848.34;88902;1267;1057396;-84
2023/06/03 12:51:28;;;;;;;2.50;0.60;;;;;;;21.54;34.97;100837.90;88930;1265;1058056;-84
2023/06/03 12:55:32;;;;;;;1.50;1.00;;;;;;;21.66;36.21;100849.14;88830;1266;1057045;-84
2023/06/03 12:59:58;;;;;;;3.70;0.60;;;;;;;21.46;36.51;100841.06;89033;1267;1057902;-83
2023/06/03 13:04:01;;;;;;;1.20;0.50;;;;;;;21.46;35.88;100833.12;88822;1267;1060313;-83
2023/06/03 13:08:06;;;;;;;1.00;0.40;;;;;;;21.66;37.28;100827.51;89053;1269;1057349;-84
2023/06/03 13:12:09;;;;;;;0.80;0.40;;;;;;;21.74;36.51;100826.96;88772;1267;1057367;-83
2023/06/03 13:16:13;;;;;;;1.30;1.00;;;;;;;21.91;37.12;100821.41;88969;1265;1059620;-84
2023/06/03 13:20:17;;;;;;;2.90;0.80;;;;;;;22.04;37.25;100819.16;88971;1270;1057081;-84
2023/06/03 13:24:20;;;;;;;1.20;0.70;;;;;;;22.04;36.48;100816.26;88981;1270;1059795;-84
2023/06/03 13:28:24;;;;;;;1.30;0.50;;;;;;;22.03;35.16;100815.35;89006;1265;1059016;-84
2023/06/03 13:32:27;;;;;;;3.00;0.80;;;;;;;22.14;36.11;100811.80;88961;1269;1058669;-83
2023/06/03 13:36:31;;;;;;;0.50;0.40;;;;;;;22.06;35.98;100812.39;88935;1265;1057711;-84
2023/06/03 13:40:34;;;;;;;2.40;0.70;;;;;;;22.05;37.06;100807.98;88962;1266;1057352;-84
2023/06/03 13:44:38;;;;;;;1.60;0.50;;;;;;;21.94;35.49;100807.20;88862;1265;1057760;-84
2023/06/03 13:48:41;;;;;;;1.50;0.50;;;;;;;21.99;35.65;100803.73;88640;1267;1057945;-84
2023/06/03 13:52:45;;;;;;;5.90;0.60;;;;;;;22.15;34.58;100805.30;88945;1269;1057321;-84
2023/06/03 13:56:53;;;;;;;1.20;0.60;;;;;;;22.35;35.19;100796.48;88742;1266;1059980;-84
2023/06/03 14:00:57;;;;;;;2.20;0.50;;;;;;;22.45;35.75;100790.33;88975;1267;1057751;-83
2023/06/03 14:05:01;;;;;;;3.60;0.70;;;;;;;22.49;36.01;100782.02;89080;1269;1057341;-83
2023/06/03 14:09:05;;;;;;;1.10;0.40;;;;;;;22.53;36.12;100781.77;89134;1266;1057667;-84
2023/06/03 14:13:10;;;;;;;1.00;0.50;;;;;;;22.43;35.47;100779.56;89094;1265;1059650;-84
2023/06/03 14:17:13;;;;;;;0.70;0.70;;;;;;;22.36;35.31;100777.13;88967;1265;1057769;-84
2023/06/03 14:21:16;;;;;;;16.60;2.00;;;;;;;22.35;36.42;100773.71;88933;1265;1057720;-85
2023/06/03 14:25:19;;;;;;;1.10;0.50;;;;;;;22.40;35.16;100764.59;88896;1265;1057605;-84
2023/06/03 14:29:22;;;;;;;1.40;0.70;;;;;;;22.58;35.92;100759.05;88987;1265;1057404;-84
2023/06/03 14:33:26;;;;;;;0.50;0.40;;;;;;;22.87;35.34;100756.63;88919;1267;1057596;-84
2023/06/03 14:37:30;;;;;;;2.10;0.80;;;;;;;23.08;36.51;100747.35;89002;1265;1057388;-84
2023/06/03 14:41:33;;;;;;;1.60;0.40;;;;;;;23.05;35.91;100749.59;89070;1264;1057601;-84
2023/06/03 14:45:37;;;;;;;0.70;0.50;;;;;;;22.92;35.29;100749.50;89145;1266;1060763;-84
2023/06/03 14:49:40;;;;;;;1.90;0.50;;;;;;;23.00;35.86;100750.98;89161;1265;1057765;-84
2023/06/03 14:53:43;;;;;;;2.30;0.50;;;;;;;23.05;34.94;100743.34;89017;1265;1059394;-84
2023/06/03 14:57:47;;;;;;;2.60;0.50;;;;;;;23.14;35.85;100739.88;89033;1270;1057291;-84
2023/06/03 15:01:50;;;;;;;0.50;0.50;;;;;;;23.17;34.48;100736.36;88937;1265;1058878;-84
2023/06/03 15:05:53;;;;;;;2.40;0.30;;;;;;;23.10;34.36;100725.88;88975;1267;1057008;-83
2023/06/03 15:09:57;;;;;;;0.90;0.30;;;;;;;22.97;34.49;100726.08;89088;1265;1057559;-84
2023/06/03 15:14:00;;;;;;;0.80;0.50;;;;;;;22.95;34.07;100722.06;88787;1265;1057707;-84
2023/06/03 15:18:03;;;;;;;1.30;0.50;;;;;;;22.87;33.87;100725.80;89239;1267;1058812;-84
2023/06/03 15:22:06;;;;;;;1.00;0.60;;;;;;;22.93;33.26;100720.80;89069;1267;1058303;-84
2023/06/03 15:26:09;;;;;;;55.40;10.70;;;;;;;22.88;35.31;100715.34;88718;1265;1057192;-84
2023/06/03 15:30:13;;;;;;;1.80;0.50;;;;;;;22.97;35.87;100712.81;89162;1265;1057716;-84
2023/06/03 15:34:16;;;;;;;2.40;0.40;;;;;;;23.18;35.38;100709.54;89048;1269;1058114;-83
2023/06/03 15:38:19;;;;;;;0.90;0.30;;;;;;;23.35;35.72;100704.85;89027;1267;1057211;-84
2023/06/03 15:42:22;;;;;;;1.70;0.60;;;;;;;23.35;35.12;100702.34;88950;1265;1057332;-84
2023/06/03 15:46:26;;;;;;;0.30;0.30;;;;;;;23.42;34.67;100698.92;88894;1265;1057649;-84
2023/06/03 15:50:30;;;;;;;0.70;0.60;;;;;;;23.53;34.54;100688.53;89001;1266;1057801;-84
2023/06/03 15:54:33;;;;;;;1.00;0.30;;;;;;;23.79;34.83;100679.05;89027;1266;1059914;-83
2023/06/03 15:58:37;;;;;;;1.60;0.70;;;;;;;23.79;34.20;100680.56;89297;1265;1058290;-84
2023/06/03 16:02:40;;;;;;;0.90;0.30;;;;;;;23.70;34.59;100673.02;89152;1269;1057857;-84
2023/06/03 16:06:44;;;;;;;0.50;0.40;;;;;;;23.71;34.76;100670.52;88995;1267;1056370;-83
2023/06/03 16:10:47;;;;;;;0.40;0.20;;;;;;;23.73;34.58;100663.75;88845;1267;1057655;-84
2023/06/03 16:14:51;;;;;;;1.50;0.50;;;;;;;23.71;34.53;100660.79;89029;1265;1057395;-83
2023/06/03 16:18:54;;;;;;;2.60;0.50;;;;;;;23.63;35.03;100659.50;88877;1265;1058182;-83
2023/06/03 16:22:57;;;;;;;0.60;0.40;;;;;;;23.31;35.30;100661.36;88978;1265;1057545;-83
2023/06/03 16:27:00;;;;;;;0.50;0.30;;;;;;;23.02;34.96;100658.01;89042;1265;1060631;-84
2023/06/03 16:31:04;;;;;;;2.50;0.50;;;;;;;22.80;34.84;100662.08;89001;1265;1057575;-84
2023/06/03 16:35:07;;;;;;;0.50;0.20;;;;;;;22.72;35.11;100662.19;89027;1265;1057800;-84
2023/06/03 16:39:10;;;;;;;0.60;0.30;;;;;;;22.55;36.33;100660.80;88967;1265;1057767;-84
2023/06/03 16:43:14;;;;;;;1.40;0.30;;;;;;;22.39;37.27;100661.73;88862;1267;1060775;-84
2023/06/03 16:47:18;;;;;;;0.60;0.20;;;;;;;22.26;37.37;100661.33;88764;1269;1057953;-84
2023/06/03 16:51:21;;;;;;;0.80;0.40;;;;;;;22.20;37.64;100663.46;89003;1264;1058130;-84
2023/06/03 16:55:25;;;;;;;1.60;0.90;;;;;;;22.15;39.04;100660.38;88857;1265;1058057;-84
2023/06/03 16:59:28;;;;;;;1.60;0.50;;;;;;;22.00;39.61;100660.23;88986;1267;1058888;-84
2023/06/03 17:03:31;;;;;;;1.00;0.60;;;;;;;21.81;39.57;100660.23;88850;1265;1057937;-84
2023/06/03 17:07:34;;;;;;;5.30;0.60;;;;;;;21.65;40.05;100658.41;89064;1269;1058314;-84
2023/06/03 17:11:40;;;;;;;0.70;0.50;;;;;;;21.60;40.67;100656.79;88871;1265;1057440;-84
2023/06/03 17:15:44;;;;;;;1.60;0.70;;;;;;;21.50;41.43;100654.68;88797;1267;1057638;-84
2023/06/03 17:19:47;;;;;;;1.90;0.60;;;;;;;21.41;42.27;100653.50;89007;1265;1058262;-84
2023/06/03 17:23:50;;;;;;;1.20;0.30;;;;;;;21.34;42.66;100652.90;88717;1264;1057615;-84
2023/06/03 17:27:53;;;;;;;1.50;0.50;;;;;;;21.29;44.60;100653.87;88768;1266;1058094;-84
2023/06/03 17:31:56;;;;;;;1.80;0.60;;;;;;;21.30;43.34;100648.34;88912;1265;1058300;-84
2023/06/03 17:36:00;;;;;;;1.70;0.50;;;;;;;21.34;43.07;100648.73;88703;1265;1058047;-84
2023/06/03 17:40:03;;;;;;;1.30;0.50;;;;;;;21.34;44.41;100646.38;89058;1266;1057236;-83
2023/06/03 17:44:06;;;;;;;1.10;0.50;;;;;;;21.30;44.33;100647.60;88814;1265;1057657;-83
2023/06/03 17:48:09;;;;;;;0.90;0.40;;;;;;;21.32;43.78;100644.84;88863;1270;1056475;-84
2023/06/03 17:52:13;;;;;;;2.20;0.70;;;;;;;21.30;43.73;100643.52;89010;1265;1058681;-83
2023/06/03 17:56:16;;;;;;;1.90;0.70;;;;;;;21.21;44.89;100643.61;88756;1265;1058121;-83
2023/06/03 18:00:20;;;;;;;1.90;0.40;;;;;;;21.09;44.07;100646.48;88909;1265;1060501;-84
2023/06/03 18:04:25;;;;;;;0.50;0.30;;;;;;;20.95;44.03;100641.17;88734;1269;1058099;-83
2023/06/03 18:08:28;;;;;;;1.50;0.70;;;;;;;20.73;45.53;100637.70;88823;1266;1057518;-84
2023/06/03 18:12:32;;;;;;;1.00;0.30;;;;;;;20.45;45.20;100645.05;88714;1266;1057446;-84
2023/06/03 18:16:35;;;;;;;2.90;0.70;;;;;;;20.15;45.28;100650.19;88952;1265;1060066;-84
2023/06/03 18:20:39;;;;;;;1.40;0.50;;;;;;;19.93;45.43;100649.89;88623;1265;1058519;-84
2023/06/03 18:24:42;;;;;;;0.40;0.10;;;;;;;19.76;45.11;100649.62;88935;1267;1057308;-83
2023/06/03 18:28:47;;;;;;;2.50;0.60;;;;;;;19.65;44.89;100652.28;88970;1266;1058309;-84
2023/06/03 18:32:50;;;;;;;1.20;0.90;;;;;;;19.62;47.14;100651.42;88929;1265;1057085;-84
2023/06/03 18:36:54;;;;;;;1.00;0.20;;;;;;;19.58;47.85;100657.98;88586;1265;1057391;-83
2023/06/03 18:40:57;;;;;;;2.10;0.40;;;;;;;19.47;48.53;100655.02;88789;1265;1058148;-84